Time;durP1;ratioP1;P1;durP2;ratioP2;P2;SDS_P1;SDS_P2;PMS_P1;PMS_P2;Temp;Humidity;BMP_temperature;BMP_pressure;BME280_temperature;BME280_humidity;BME280_pressure;Samples;Min_cycle;Max_cycle;Signal;HPM_P1;HPM_P2
2023/05/09 00:00:32;;;;;;;24.40;12.63;;;13.20;99.90;;;;;;5042634;28;20199;-60
2023/05/09 00:02:58;;;;;;;22.70;13.70;;;13.20;99.90;;;;;;5038360;28;20183;-60
2023/05/09 00:05:24;;;;;;;23.20;11.37;;;13.20;99.90;;;;;;5036070;28;20183;-60
2023/05/09 00:07:50;;;;;;;14.43;8.80;;;13.20;99.90;;;;;;5041719;28;20171;-60
2023/05/09 00:10:15;;;;;;;15.20;10.83;;;13.20;99.90;;;;;;5036501;28;20446;-60
2023/05/09 00:12:42;;;;;;;22.33;12.60;;;13.20;99.90;;;;;;5040992;28;20554;-60
2023/05/09 00:15:08;;;;;;;19.20;12.03;;;13.20;99.90;;;;;;5040405;28;20598;-60
2023/05/09 00:17:38;;;;;;;19.40;12.10;;;13.20;99.90;;;;;;5034793;28;20426;-60
2023/05/09 00:20:08;;;;;;;19.80;12.40;;;13.20;99.90;;;;;;5022928;28;20438;-59
2023/05/09 00:22:33;;;;;;;17.00;10.90;;;13.20;99.90;;;;;;5037784;28;20441;-60
2023/05/09 00:24:59;;;;;;;17.30;11.97;;;13.20;99.90;;;;;;5033865;28;20430;-60
2023/05/09 00:27:25;;;;;;;21.37;12.97;;;13.20;99.90;;;;;;5018337;28;20651;-60
2023/05/09 00:29:50;;;;;;;18.10;12.43;;;13.20;99.90;;;;;;5046099;28;20208;-60
2023/05/09 00:32:16;;;;;;;21.30;13.13;;;13.20;99.90;;;;;;5042821;28;20903;-60
2023/05/09 00:34:41;;;;;;;23.83;12.47;;;13.20;99.90;;;;;;5043157;28;20186;-60
2023/05/09 00:37:07;;;;;;;21.90;13.83;;;13.20;99.90;;;;;;5018587;28;20254;-60
2023/05/09 00:39:32;;;;;;;20.00;13.50;;;13.20;99.90;;;;;;5043560;28;20648;-60
2023/05/09 00:41:58;;;;;;;23.53;13.23;;;13.20;99.90;;;;;;5020638;28;20207;-60
2023/05/09 00:44:24;;;;;;;25.30;14.20;;;13.20;99.90;;;;;;5040541;28;20187;-60
2023/05/09 00:46:49;;;;;;;27.83;15.97;;;13.20;99.90;;;;;;5038477;28;20270;-60
2023/05/09 00:49:15;;;;;;;25.03;15.23;;;13.20;99.90;;;;;;5036675;28;20576;-60
2023/05/09 00:51:40;;;;;;;28.47;17.23;;;13.20;99.90;;;;;;5045878;28;20211;-60
2023/05/09 00:54:07;;;;;;;41.27;19.50;;;13.20;99.90;;;;;;5043554;28;20181;-60
2023/05/09 00:56:33;;;;;;;35.23;18.70;;;13.20;99.90;;;;;;5036096;28;20167;-60
2023/05/09 00:58:59;;;;;;;34.50;18.40;;;13.20;99.90;;;;;;5036783;28;20488;-60
2023/05/09 01:01:25;;;;;;;35.90;18.97;;;13.20;99.90;;;;;;5036530;28;20213;-60
2023/05/09 01:03:51;;;;;;;36.67;18.70;;;13.20;99.90;;;;;;5036993;28;20430;-60
2023/05/09 01:06:38;;;;;;;51.57;20.90;;;13.20;99.90;;;;;;5041065;28;20624;-60
2023/05/09 01:09:09;;;;;;;51.70;22.93;;;13.20;99.90;;;;;;5043200;28;20461;-60
2023/05/09 01:11:51;;;;;;;52.00;22.80;;;13.30;99.90;;;;;;5044393;28;20445;-60
2023/05/09 01:14:26;;;;;;;52.60;21.20;;;13.30;99.90;;;;;;5038472;28;20436;-59
2023/05/09 01:17:20;;;;;;;27.30;15.00;;;13.30;99.90;;;;;;5035323;28;20433;-60
2023/05/09 01:20:17;;;;;;;23.10;13.43;;;13.30;99.90;;;;;;5039957;28;20638;-60
2023/05/09 01:22:49;;;;;;;19.17;12.37;;;13.30;99.90;;;;;;5035868;28;20442;-60
2023/05/09 01:25:27;;;;;;;23.23;13.63;;;13.20;99.90;;;;;;5038455;28;20437;-61
2023/05/09 01:27:56;;;;;;;22.63;13.83;;;13.30;99.90;;;;;;5043900;28;20879;-61
2023/05/09 01:30:24;;;;;;;25.53;14.33;;;13.20;99.90;;;;;;5052880;28;20465;-61
2023/05/09 01:32:52;;;;;;;32.50;14.00;;;13.20;99.90;;;;;;5048194;28;20997;-61
2023/05/09 01:35:22;;;;;;;25.30;15.20;;;13.20;99.90;;;;;;5048604;28;20436;-61
2023/05/09 01:37:49;;;;;;;28.67;13.40;;;13.20;99.90;;;;;;5045299;28;20504;-61
2023/05/09 01:40:19;;;;;;;28.77;15.77;;;13.20;99.90;;;;;;5039080;28;20435;-61
2023/05/09 01:43:06;;;;;;;25.90;15.27;;;13.10;99.90;;;;;;5035516;28;20533;-61
2023/05/09 01:45:34;;;;;;;22.97;14.00;;;13.10;99.90;;;;;;5047123;28;20429;-61
2023/05/09 01:48:01;;;;;;;26.43;14.13;;;13.10;99.90;;;;;;5043904;28;20430;-61
2023/05/09 01:50:29;;;;;;;26.30;15.40;;;13.20;99.90;;;;;;5043775;28;20921;-61
2023/05/09 01:52:57;;;;;;;29.90;16.00;;;13.20;99.90;;;;;;5038653;28;20433;-60
2023/05/09 01:55:27;;;;;;;28.20;16.07;;;13.20;99.90;;;;;;5039199;28;20788;-61
2023/05/09 01:57:54;;;;;;;30.20;16.00;;;13.20;99.90;;;;;;5040873;28;20414;-61
2023/05/09 02:00:22;;;;;;;32.90;17.03;;;13.20;99.90;;;;;;5036256;28;20430;-61
2023/05/09 02:02:48;;;;;;;27.53;16.57;;;13.20;99.90;;;;;;5023305;28;20495;-61
2023/05/09 02:05:15;;;;;;;29.50;15.60;;;13.20;99.90;;;;;;5045561;28;20441;-61
2023/05/09 02:07:41;;;;;;;29.17;15.70;;;13.20;99.90;;;;;;5040725;28;20440;-61
2023/05/09 02:10:08;;;;;;;30.90;17.10;;;13.20;99.90;;;;;;5047227;28;20453;-61
2023/05/09 02:12:34;;;;;;;29.97;16.50;;;13.20;99.90;;;;;;5042635;28;20950;-61
2023/05/09 02:15:00;;;;;;;25.13;15.53;;;13.30;99.90;;;;;;5044128;28;20473;-61
2023/05/09 02:17:29;;;;;;;29.40;15.63;;;13.20;99.90;;;;;;5036533;28;20177;-61
2023/05/09 02:19:55;;;;;;;26.30;16.60;;;13.30;99.90;;;;;;5036260;28;20859;-61
2023/05/09 02:22:21;;;;;;;35.00;17.00;;;13.20;99.90;;;;;;5044661;28;20507;-61
2023/05/09 02:24:47;;;;;;;30.43;16.07;;;13.20;99.90;;;;;;5048325;28;20432;-61
2023/05/09 02:27:14;;;;;;;37.47;18.70;;;13.20;99.90;;;;;;5040879;28;20238;-61
2023/05/09 02:29:46;;;;;;;34.87;17.50;;;13.20;99.90;;;;;;5035990;28;20191;-61
2023/05/09 02:32:19;;;;;;;33.63;19.07;;;13.30;99.90;;;;;;5040369;28;20453;-61
2023/05/09 02:34:46;;;;;;;35.87;20.33;;;13.30;99.90;;;;;;5045512;28;20452;-61
2023/05/09 02:37:12;;;;;;;36.23;20.60;;;13.30;99.90;;;;;;5048028;28;20528;-61
2023/05/09 02:39:38;;;;;;;33.57;19.40;;;13.30;99.90;;;;;;5041760;28;20434;-61
2023/05/09 02:42:08;;;;;;;29.40;17.07;;;13.30;99.90;;;;;;5045055;28;20538;-61
2023/05/09 02:44:34;;;;;;;27.27;16.00;;;13.20;99.90;;;;;;5043837;28;20434;-61
2023/05/09 02:47:01;;;;;;;26.90;16.80;;;13.20;99.90;;;;;;5028309;28;20460;-61
2023/05/09 02:49:27;;;;;;;21.40;14.57;;;13.20;99.90;;;;;;5044676;28;20200;-61
2023/05/09 02:51:52;;;;;;;24.93;15.70;;;13.20;99.90;;;;;;5044353;28;20801;-61
2023/05/09 02:54:18;;;;;;;22.83;14.83;;;13.20;99.90;;;;;;5038235;28;20206;-60
2023/05/09 02:56:43;;;;;;;27.80;15.90;;;13.20;99.90;;;;;;5036722;28;20176;-61
2023/05/09 02:59:09;;;;;;;22.40;14.90;;;13.20;99.90;;;;;;5032730;28;20188;-61
2023/05/09 03:01:35;;;;;;;28.33;16.20;;;13.20;99.90;;;;;;5049907;28;20227;-61
2023/05/09 03:04:00;;;;;;;30.30;16.37;;;13.20;99.90;;;;;;5042570;28;20321;-61
2023/05/09 03:06:26;;;;;;;25.37;16.43;;;13.20;99.90;;;;;;5039385;28;20179;-61
2023/05/09 03:08:51;;;;;;;25.27;15.10;;;13.20;99.90;;;;;;5042939;28;20240;-61
2023/05/09 03:11:17;;;;;;;27.00;15.70;;;13.20;99.90;;;;;;5030690;28;20322;-61
2023/05/09 03:13:42;;;;;;;26.27;16.40;;;13.20;99.90;;;;;;5043627;28;20272;-61
2023/05/09 03:16:12;;;;;;;27.10;15.70;;;13.20;99.90;;;;;;5045140;28;20695;-61
2023/05/09 03:18:38;;;;;;;29.97;17.17;;;13.30;99.90;;;;;;5042134;28;20175;-61
2023/05/09 03:21:04;;;;;;;30.80;18.20;;;13.20;99.90;;;;;;5041083;28;20477;-61
2023/05/09 03:23:30;;;;;;;30.37;18.20;;;13.20;99.90;;;;;;5046706;28;20456;-62
2023/05/09 03:25:55;;;;;;;28.90;17.40;;;13.30;99.90;;;;;;5043931;28;20179;-61
2023/05/09 03:28:21;;;;;;;29.43;17.40;;;13.30;99.90;;;;;;5046034;28;20179;-61
2023/05/09 03:30:47;;;;;;;31.97;18.87;;;13.30;99.90;;;;;;5039958;28;20219;-61
2023/05/09 03:33:12;;;;;;;23.73;15.63;;;13.30;99.90;;;;;;5040599;28;20181;-62
2023/05/09 03:35:38;;;;;;;29.77;17.60;;;13.30;99.90;;;;;;5042997;28;20568;-61
2023/05/09 03:38:04;;;;;;;32.20;16.50;;;13.30;99.90;;;;;;5042408;28;20768;-61
2023/05/09 03:40:30;;;;;;;24.83;15.77;;;13.30;99.90;;;;;;5039729;28;20206;-61
2023/05/09 03:42:55;;;;;;;29.20;17.17;;;13.30;99.90;;;;;;5044827;28;20437;-61
2023/05/09 03:45:21;;;;;;;29.30;17.40;;;13.30;99.90;;;;;;5036976;28;20186;-61
2023/05/09 03:47:46;;;;;;;28.63;16.63;;;13.30;99.90;;;;;;5045046;28;20187;-61
2023/05/09 03:50:12;;;;;;;27.27;16.07;;;13.30;99.90;;;;;;5033546;28;20231;-61
2023/05/09 03:52:37;;;;;;;28.73;17.17;;;13.30;99.90;;;;;;5040059;28;20187;-61
2023/05/09 03:55:04;;;;;;;32.23;17.87;;;13.30;99.90;;;;;;5038223;28;20186;-60
2023/05/09 03:57:30;;;;;;;34.70;19.30;;;13.30;99.90;;;;;;5041219;28;20186;-59
2023/05/09 03:59:56;;;;;;;28.23;18.00;;;13.30;99.90;;;;;;5042515;28;20438;-59
2023/05/09 04:02:22;;;;;;;35.70;18.80;;;13.30;99.90;;;;;;5041029;28;20218;-59
2023/05/09 04:04:48;;;;;;;31.47;17.83;;;13.30;99.90;;;;;;5040673;28;20652;-61
2023/05/09 04:07:14;;;;;;;30.20;18.07;;;13.30;99.90;;;;;;5044718;28;20441;-62
2023/05/09 04:09:41;;;;;;;32.60;18.63;;;13.30;99.90;;;;;;5038875;28;20913;-61
2023/05/09 04:12:07;;;;;;;32.97;19.33;;;13.30;99.90;;;;;;5044729;28;20283;-61
2023/05/09 04:14:33;;;;;;;31.90;18.40;;;13.30;99.90;;;;;;5035065;28;20537;-61
2023/05/09 04:16:58;;;;;;;33.00;18.60;;;13.30;99.90;;;;;;5033783;28;20510;-57
2023/05/09 04:19:24;;;;;;;31.07;18.30;;;13.30;99.90;;;;;;5031859;28;21446;-57
2023/05/09 04:21:50;;;;;;;28.00;17.83;;;13.30;99.90;;;;;;5033390;28;20206;-56
2023/05/09 04:24:15;;;;;;;34.10;19.40;;;13.30;99.90;;;;;;5030992;28;20179;-55
2023/05/09 04:26:41;;;;;;;29.57;19.07;;;13.40;99.90;;;;;;5032152;28;20950;-58
2023/05/09 04:29:07;;;;;;;35.67;18.80;;;13.30;99.90;;;;;;5038370;28;20229;-64
2023/05/09 04:31:33;;;;;;;32.90;18.50;;;13.30;99.90;;;;;;5037329;28;20691;-61
2023/05/09 04:33:58;;;;;;;33.83;18.50;;;13.30;99.90;;;;;;5032300;28;20236;-61
2023/05/09 04:36:24;;;;;;;33.63;19.00;;;13.30;99.90;;;;;;5040054;28;20182;-61
2023/05/09 04:38:50;;;;;;;31.30;18.80;;;13.30;99.90;;;;;;5034382;28;20171;-59
2023/05/09 04:41:15;;;;;;;28.07;16.37;;;13.40;99.90;;;;;;5040134;28;20206;-60
2023/05/09 04:43:42;;;;;;;30.60;19.40;;;13.40;99.90;;;;;;5029235;28;20179;-61
2023/05/09 04:46:07;;;;;;;36.00;18.73;;;13.40;99.90;;;;;;5036353;28;20233;-58
2023/05/09 04:48:34;;;;;;;33.70;17.77;;;13.40;99.90;;;;;;5035233;28;21125;-59
2023/05/09 04:51:01;;;;;;;29.63;18.00;;;13.40;99.90;;;;;;5036619;28;20679;-60
2023/05/09 04:53:27;;;;;;;34.20;19.10;;;13.40;99.90;;;;;;5034146;28;20438;-59
2023/05/09 04:55:53;;;;;;;34.30;19.27;;;13.40;99.90;;;;;;5038930;28;20467;-61
2023/05/09 04:58:19;;;;;;;31.53;18.90;;;13.40;99.90;;;;;;5031030;28;20510;-60
2023/05/09 05:00:45;;;;;;;34.20;20.47;;;13.50;99.90;;;;;;5043246;28;20969;-61
2023/05/09 05:03:11;;;;;;;37.13;19.43;;;13.50;99.90;;;;;;5039511;28;20183;-61
2023/05/09 05:05:37;;;;;;;33.23;18.70;;;13.50;99.90;;;;;;5040758;28;20559;-61
2023/05/09 05:08:03;;;;;;;29.80;17.90;;;13.50;99.90;;;;;;5044802;28;20527;-60
2023/05/09 05:10:29;;;;;;;37.30;20.60;;;13.50;99.90;;;;;;5047296;28;20293;-60
2023/05/09 05:12:55;;;;;;;26.43;16.50;;;13.50;99.90;;;;;;5039964;28;20452;-60
2023/05/09 05:15:20;;;;;;;25.73;14.63;;;13.50;99.90;;;;;;5046901;28;20430;-62
2023/05/09 05:17:46;;;;;;;22.10;14.17;;;13.50;99.90;;;;;;5042257;28;20236;-60
2023/05/09 05:20:12;;;;;;;22.83;13.60;;;13.50;99.90;;;;;;5040857;28;20321;-60
2023/05/09 05:22:37;;;;;;;24.50;14.07;;;13.50;99.90;;;;;;5043171;28;20314;-60
2023/05/09 05:25:03;;;;;;;22.13;13.40;;;13.50;99.90;;;;;;5048325;28;20187;-61
2023/05/09 05:27:30;;;;;;;22.80;13.97;;;13.50;99.90;;;;;;5047700;28;20804;-60
2023/05/09 05:29:55;;;;;;;26.03;14.53;;;13.40;99.90;;;;;;5053053;28;21057;-60
2023/05/09 05:32:21;;;;;;;20.90;12.70;;;13.40;99.90;;;;;;5043333;28;20532;-60
2023/05/09 05:34:46;;;;;;;23.80;13.50;;;13.40;99.90;;;;;;5044383;28;20183;-60
2023/05/09 05:37:12;;;;;;;21.80;13.63;;;13.40;99.90;;;;;;5044907;28;20621;-60
2023/05/09 05:39:37;;;;;;;22.33;13.50;;;13.40;99.90;;;;;;5038733;28;20199;-61
2023/05/09 05:42:03;;;;;;;23.67;14.60;;;13.40;99.90;;;;;;5048791;28;20199;-61
2023/05/09 05:44:29;;;;;;;22.40;13.80;;;13.40;99.90;;;;;;5042327;28;20180;-61
2023/05/09 05:46:54;;;;;;;29.27;14.50;;;13.40;99.90;;;;;;5039271;28;20794;-59
2023/05/09 05:49:20;;;;;;;26.40;15.10;;;13.50;99.90;;;;;;5020565;28;20210;-61
2023/05/09 05:51:45;;;;;;;19.37;12.93;;;13.50;99.90;;;;;;5041547;28;20215;-61
2023/05/09 05:54:11;;;;;;;25.03;12.70;;;13.50;99.90;;;;;;5044173;28;20183;-61
2023/05/09 05:56:37;;;;;;;23.30;13.30;;;13.50;99.90;;;;;;5044891;28;20229;-60
2023/05/09 05:59:02;;;;;;;19.57;13.30;;;13.60;99.90;;;;;;5038579;28;20221;-60
2023/05/09 06:01:28;;;;;;;26.90;13.70;;;13.60;99.90;;;;;;5039568;28;20195;-61
2023/05/09 06:03:54;;;;;;;19.77;12.43;;;13.70;99.90;;;;;;5017298;28;20659;-60
2023/05/09 06:06:25;;;;;;;23.23;13.20;;;13.70;99.90;;;;;;5033420;28;20178;-60
2023/05/09 06:08:50;;;;;;;24.37;12.33;;;13.80;99.90;;;;;;5046550;28;20829;-61
2023/05/09 06:11:16;;;;;;;19.30;12.17;;;13.90;99.90;;;;;;5036192;28;20465;-61
2023/05/09 06:13:42;;;;;;;21.27;13.60;;;13.90;99.90;;;;;;5039750;28;20207;-61
2023/05/09 06:16:08;;;;;;;26.43;13.93;;;14.00;99.90;;;;;;5039643;28;20558;-61
2023/05/09 06:18:38;;;;;;;28.73;14.03;;;14.20;99.90;;;;;;5019249;28;20179;-61
2023/05/09 06:21:07;;;;;;;18.87;11.47;;;14.30;99.90;;;;;;5046128;28;20191;-60
2023/05/09 06:23:35;;;;;;;21.40;12.03;;;14.40;99.90;;;;;;5045673;28;20452;-60
2023/05/09 06:26:01;;;;;;;19.07;12.37;;;14.50;99.90;;;;;;5040850;28;20440;-61
2023/05/09 06:28:27;;;;;;;25.40;14.50;;;14.50;99.90;;;;;;5041337;28;20913;-60
2023/05/09 06:30:52;;;;;;;26.27;14.50;;;14.50;99.90;;;;;;5039319;28;20490;-60
2023/05/09 06:33:18;;;;;;;21.80;14.07;;;14.50;99.90;;;;;;5031883;28;20176;-60
2023/05/09 06:35:44;;;;;;;22.70;13.83;;;14.50;99.90;;;;;;5047838;28;20253;-61
2023/05/09 06:38:09;;;;;;;22.07;14.20;;;14.50;99.90;;;;;;5045979;28;20175;-61
2023/05/09 06:40:35;;;;;;;20.33;13.47;;;14.50;99.90;;;;;;5038949;28;20598;-60
2023/05/09 06:43:00;;;;;;;23.40;13.70;;;14.50;99.90;;;;;;5030885;28;20183;-61
2023/05/09 06:45:26;;;;;;;25.70;13.50;;;14.50;99.90;;;;;;5040011;28;20175;-61
2023/05/09 06:47:52;;;;;;;28.00;13.20;;;14.60;99.90;;;;;;5039574;28;20292;-61
2023/05/09 06:50:17;;;;;;;17.37;12.13;;;14.60;99.90;;;;;;5037127;28;20215;-60
2023/05/09 06:52:43;;;;;;;19.77;11.37;;;14.70;99.90;;;;;;5043240;28;20172;-61
2023/05/09 06:55:09;;;;;;;21.83;12.40;;;14.90;99.90;;;;;;5047604;28;20179;-61
2023/05/09 06:57:35;;;;;;;23.07;12.53;;;15.10;99.90;;;;;;5042222;28;20175;-60
2023/05/09 07:00:00;;;;;;;19.40;12.70;;;15.20;99.90;;;;;;5039908;28;21001;-60
2023/05/09 07:02:26;;;;;;;23.90;12.53;;;15.30;99.90;;;;;;5044914;28;20241;-61
2023/05/09 07:04:51;;;;;;;19.50;11.63;;;15.40;99.90;;;;;;5043096;28;20183;-61
2023/05/09 07:07:17;;;;;;;18.03;11.93;;;15.50;99.90;;;;;;5036055;28;20187;-61
2023/05/09 07:09:43;;;;;;;19.57;13.07;;;15.50;99.90;;;;;;5023013;28;20540;-60
2023/05/09 07:12:08;;;;;;;16.57;11.03;;;15.70;99.90;;;;;;5040349;28;20753;-61
2023/05/09 07:14:34;;;;;;;15.90;11.00;;;15.80;99.90;;;;;;5031029;28;20175;-61
2023/05/09 07:17:00;;;;;;;19.23;11.60;;;15.90;99.90;;;;;;5038034;28;20180;-60
2023/05/09 07:19:25;;;;;;;18.50;11.43;;;16.00;99.90;;;;;;5019756;28;20184;-61
2023/05/09 07:21:51;;;;;;;19.83;10.23;;;16.00;99.90;;;;;;5039937;28;20274;-61
2023/05/09 07:24:17;;;;;;;16.90;11.27;;;16.10;99.90;;;;;;5019465;28;20182;-61
2023/05/09 07:26:42;;;;;;;17.97;10.80;;;16.10;99.90;;;;;;5049413;28;20829;-61
2023/05/09 07:29:08;;;;;;;15.53;10.07;;;16.00;99.90;;;;;;5046559;28;20180;-60
2023/05/09 07:31:34;;;;;;;14.53;9.23;;;16.00;99.90;;;;;;5045659;28;20198;-61
2023/05/09 07:33:59;;;;;;;14.47;9.90;;;16.00;99.90;;;;;;5045691;28;20234;-60
2023/05/09 07:36:25;;;;;;;14.03;9.23;;;15.90;99.90;;;;;;5037705;28;20183;-60
2023/05/09 07:38:51;;;;;;;14.20;8.90;;;15.90;99.90;;;;;;5046458;28;20553;-61
2023/05/09 07:41:17;;;;;;;13.40;7.73;;;15.90;99.90;;;;;;5045416;28;20199;-61
2023/05/09 07:43:44;;;;;;;13.30;7.70;;;15.80;99.90;;;;;;5041693;28;20414;-59
2023/05/09 07:46:09;;;;;;;14.23;8.13;;;15.80;99.90;;;;;;5040197;28;20463;-61
2023/05/09 07:48:35;;;;;;;12.00;8.00;;;15.80;99.90;;;;;;5045343;28;20514;-60
2023/05/09 07:51:00;;;;;;;13.63;8.47;;;15.80;99.90;;;;;;5047156;28;20210;-60
2023/05/09 07:53:26;;;;;;;16.20;8.00;;;15.80;99.90;;;;;;5040032;28;20178;-61
2023/05/09 07:55:52;;;;;;;11.70;7.90;;;15.80;99.90;;;;;;5043270;28;20175;-60
2023/05/09 07:58:18;;;;;;;11.50;7.30;;;15.80;99.90;;;;;;5041447;28;20168;-61
2023/05/09 08:00:43;;;;;;;10.70;6.43;;;15.90;99.90;;;;;;5036410;28;20449;-60
2023/05/09 08:03:09;;;;;;;9.33;6.67;;;16.00;99.90;;;;;;5040351;28;20819;-60
2023/05/09 08:05:35;;;;;;;9.80;6.70;;;16.00;99.90;;;;;;5046621;28;20182;-61
2023/05/09 08:08:00;;;;;;;9.53;6.53;;;15.90;99.90;;;;;;5044259;28;20550;-61
2023/05/09 08:10:29;;;;;;;8.90;6.20;;;15.90;99.90;;;;;;5039334;28;20203;-61
2023/05/09 08:12:55;;;;;;;7.40;5.70;;;15.80;99.90;;;;;;5043071;28;20521;-61
2023/05/09 08:15:21;;;;;;;8.13;6.03;;;15.70;99.90;;;;;;5037189;28;22517;-61
2023/05/09 08:17:46;;;;;;;9.13;6.90;;;15.70;99.90;;;;;;5037473;28;20537;-61
2023/05/09 08:20:12;;;;;;;11.07;6.30;;;15.80;99.90;;;;;;5041222;28;20253;-60
2023/05/09 08:22:39;;;;;;;8.67;5.93;;;15.80;99.90;;;;;;5041763;28;20186;-60
2023/05/09 08:25:06;;;;;;;11.00;6.13;;;15.80;99.90;;;;;;5045778;28;20548;-61
2023/05/09 08:27:32;;;;;;;9.23;5.33;;;15.80;99.90;;;;;;5040805;28;20512;-61
2023/05/09 08:29:57;;;;;;;6.97;5.53;;;15.80;99.90;;;;;;5038814;28;20533;-61
2023/05/09 08:32:23;;;;;;;6.90;5.20;;;15.80;99.90;;;;;;5045303;28;20726;-60
2023/05/09 08:34:49;;;;;;;8.53;5.70;;;15.80;99.90;;;;;;5039773;28;20250;-61
2023/05/09 08:37:15;;;;;;;9.07;6.17;;;15.90;99.90;;;;;;5045682;28;20848;-61
2023/05/09 08:39:41;;;;;;;8.67;6.23;;;15.90;99.90;;;;;;5037516;28;20179;-61
2023/05/09 08:42:08;;;;;;;7.43;5.70;;;16.00;99.90;;;;;;5042564;28;20695;-61
2023/05/09 08:44:33;;;;;;;7.47;5.23;;;16.10;99.90;;;;;;5040714;28;20179;-61
2023/05/09 08:47:01;;;;;;;11.30;6.23;;;16.20;99.90;;;;;;5047348;28;20479;-61
2023/05/09 08:49:27;;;;;;;7.63;5.20;;;16.30;99.90;;;;;;5041096;28;20203;-61
2023/05/09 08:51:53;;;;;;;5.13;4.60;;;16.50;99.90;;;;;;5041061;28;20556;-60
2023/05/09 08:54:21;;;;;;;7.67;5.80;;;16.50;99.90;;;;;;5039799;28;20417;-60
2023/05/09 08:56:46;;;;;;;8.17;4.60;;;16.50;99.90;;;;;;5043359;28;20458;-60
2023/05/09 08:59:13;;;;;;;6.50;4.27;;;16.50;99.90;;;;;;5038003;28;20469;-61
2023/05/09 09:01:39;;;;;;;4.70;3.90;;;16.70;99.90;;;;;;5040552;28;20609;-60
2023/05/09 09:04:06;;;;;;;8.17;4.20;;;16.90;99.90;;;;;;5040643;28;22038;-60
2023/05/09 09:06:37;;;;;;;7.23;4.33;;;17.10;99.90;;;;;;5036538;28;20437;-60
2023/05/09 09:09:05;;;;;;;5.20;3.67;;;17.30;99.90;;;;;;5039144;28;20441;-60
2023/05/09 09:11:32;;;;;;;8.57;5.17;;;17.40;99.90;;;;;;5045599;28;20454;-60
2023/05/09 09:14:12;;;;;;;6.00;4.67;;;17.40;99.90;;;;;;5038995;28;20421;-61
2023/05/09 09:16:40;;;;;;;5.47;3.93;;;17.30;99.90;;;;;;5043116;28;20428;-60
2023/05/09 09:19:10;;;;;;;7.03;5.10;;;17.20;99.90;;;;;;5043041;28;20421;-61
2023/05/09 09:21:37;;;;;;;9.00;5.67;;;17.10;99.90;;;;;;5032436;28;20496;-60
2023/05/09 09:24:04;;;;;;;7.20;5.33;;;17.20;99.90;;;;;;5039985;28;20499;-60
2023/05/09 09:26:30;;;;;;;10.80;4.80;;;17.20;99.90;;;;;;5040419;28;20516;-59
2023/05/09 09:28:56;;;;;;;5.47;4.23;;;17.10;99.90;;;;;;5038286;28;20437;-60
2023/05/09 09:31:29;;;;;;;8.47;5.03;;;17.20;99.90;;;;;;5037982;28;20807;-61
2023/05/09 09:34:00;;;;;;;11.00;4.30;;;17.30;99.90;;;;;;5036486;28;20430;-60
2023/05/09 09:36:34;;;;;;;9.43;4.33;;;17.60;99.90;;;;;;5039965;28;20458;-59
2023/05/09 09:39:01;;;;;;;8.50;3.10;;;17.80;99.90;;;;;;5036070;28;20442;-58
2023/05/09 09:41:34;;;;;;;2.90;2.60;;;17.90;99.90;;;;;;5038892;28;20442;-60
2023/05/09 09:44:09;;;;;;;6.00;3.50;;;18.00;99.90;;;;;;5036133;28;20433;-60
2023/05/09 09:46:42;;;;;;;4.07;3.40;;;18.00;99.90;;;;;;5036756;28;20518;-60
2023/05/09 09:49:09;;;;;;;8.07;3.50;;;18.00;99.90;;;;;;5043979;28;20421;-60
2023/05/09 09:51:35;;;;;;;4.27;3.67;;;18.00;99.90;;;;;;5036449;28;20461;-60
2023/05/09 09:54:05;;;;;;;4.17;3.00;;;17.90;99.90;;;;;;5046101;28;21154;-60
2023/05/09 09:56:39;;;;;;;8.10;2.80;;;17.90;99.90;;;;;;5031334;28;20199;-60
2023/05/09 09:59:15;;;;;;;3.20;2.73;;;18.00;99.90;;;;;;5044377;28;20887;-60
2023/05/09 10:02:03;;;;;;;4.20;2.20;;;18.20;99.90;;;;;;5039116;28;20506;-60
2023/05/09 10:04:33;;;;;;;1.80;1.60;;;18.50;99.90;;;;;;5040521;28;20520;-60
2023/05/09 10:07:04;;;;;;;2.60;1.83;;;18.70;99.90;;;;;;5042159;28;20514;-60
2023/05/09 10:09:31;;;;;;;2.07;1.90;;;18.90;99.90;;;;;;5046336;28;20504;-60
2023/05/09 10:12:02;;;;;;;2.67;2.47;;;19.10;99.90;;;;;;5039246;28;20540;-61
2023/05/09 10:14:30;;;;;;;5.00;1.80;;;19.20;99.90;;;;;;5046230;28;20436;-60
2023/05/09 10:16:56;;;;;;;5.13;2.43;;;19.30;93.00;;;;;;5045320;28;20437;-60
2023/05/09 10:19:23;;;;;;;2.03;1.73;;;19.20;92.60;;;;;;5044199;28;20493;-61
2023/05/09 10:21:54;;;;;;;4.27;2.30;;;19.10;93.40;;;;;;5046011;28;20457;-61
2023/05/09 10:24:34;;;;;;;2.57;2.30;;;19.20;95.90;;;;;;5039581;28;20464;-61
2023/05/09 10:27:05;;;;;;;1.93;1.80;;;19.30;94.30;;;;;;5038178;28;20422;-61
2023/05/09 10:29:37;;;;;;;2.97;1.60;;;19.50;95.70;;;;;;5022656;28;21191;-61
2023/05/09 10:32:38;;;;;;;3.40;2.67;;;19.70;91.70;;;;;;5034554;28;20575;-60
2023/05/09 10:35:09;;;;;;;2.50;2.30;;;19.90;91.50;;;;;;5004837;28;20528;-60
2023/05/09 10:37:36;;;;;;;4.30;2.33;;;20.00;89.90;;;;;;5016976;28;20565;-61
2023/05/09 10:40:03;;;;;;;2.43;2.20;;;20.10;91.70;;;;;;5043242;28;20925;-62
2023/05/09 10:42:30;;;;;;;8.53;2.80;;;20.10;89.70;;;;;;5039546;28;21039;-62
2023/05/09 10:44:56;;;;;;;5.53;2.17;;;20.00;81.20;;;;;;5040338;28;20433;-61
2023/05/09 10:47:25;;;;;;;6.13;1.60;;;19.90;89.50;;;;;;5024642;28;20429;-61
2023/05/09 10:49:51;;;;;;;4.23;1.90;;;19.70;85.20;;;;;;5031384;28;20458;-61
2023/05/09 10:52:19;;;;;;;2.20;2.00;;;19.60;80.10;;;;;;5039063;28;20465;-61
2023/05/09 10:55:00;;;;;;;2.13;1.83;;;19.60;73.00;;;;;;5032523;28;20491;-61
2023/05/09 10:57:28;;;;;;;3.63;2.20;;;19.50;73.90;;;;;;5040242;28;20433;-62
2023/05/09 10:59:55;;;;;;;1.87;1.77;;;19.50;84.20;;;;;;5035481;28;20426;-61
2023/05/09 11:02:22;;;;;;;3.10;2.20;;;19.60;86.10;;;;;;5035608;28;20533;-60
2023/05/09 11:05:08;;;;;;;3.57;2.07;;;19.60;83.50;;;;;;5041602;28;21107;-62
2023/05/09 11:07:34;;;;;;;2.67;2.20;;;19.50;86.10;;;;;;5034630;28;20427;-61
2023/05/09 11:10:13;;;;;;;4.83;2.07;;;19.50;86.80;;;;;;5043009;28;20449;-61
2023/05/09 11:12:59;;;;;;;9.73;2.30;;;19.50;79.70;;;;;;5043372;28;20258;-61
2023/05/09 11:15:28;;;;;;;2.33;2.13;;;19.40;80.20;;;;;;5046962;28;20508;-61
2023/05/09 11:18:09;;;;;;;3.97;2.00;;;19.30;87.40;;;;;;5041671;28;20430;-62
2023/05/09 11:20:41;;;;;;;2.43;2.23;;;19.20;93.50;;;;;;5040971;28;20449;-61
2023/05/09 11:23:10;;;;;;;6.67;2.07;;;19.20;94.20;;;;;;5045068;28;20849;-62
2023/05/09 11:25:38;;;;;;;3.57;1.70;;;19.20;92.10;;;;;;5042460;28;20509;-61
2023/05/09 11:28:05;;;;;;;2.00;1.90;;;19.20;92.50;;;;;;5022116;28;20544;-62
2023/05/09 11:30:41;;;;;;;2.60;2.40;;;19.20;93.80;;;;;;5035494;28;20535;-62
2023/05/09 11:33:26;;;;;;;3.00;2.30;;;19.20;94.50;;;;;;5038339;28;20438;-61
2023/05/09 11:36:28;;;;;;;4.77;2.00;;;19.20;91.50;;;;;;5044582;28;20465;-62
2023/05/09 11:39:05;;;;;;;4.73;2.30;;;19.20;95.20;;;;;;5041988;28;20429;-61
2023/05/09 11:41:35;;;;;;;3.10;2.00;;;19.40;90.30;;;;;;5037513;28;20567;-62
2023/05/09 11:44:01;;;;;;;2.40;2.20;;;19.40;89.60;;;;;;5033958;28;20532;-61
2023/05/09 11:46:27;;;;;;;2.27;2.07;;;19.30;89.90;;;;;;5040875;28;21095;-61
2023/05/09 11:48:52;;;;;;;3.93;2.30;;;19.20;90.70;;;;;;5039927;28;20189;-62
2023/05/09 11:51:18;;;;;;;6.40;2.20;;;19.10;90.20;;;;;;5039196;28;20742;-62
2023/05/09 11:53:48;;;;;;;2.80;2.13;;;19.10;91.00;;;;;;5027710;28;20175;-61
2023/05/09 11:56:15;;;;;;;6.40;2.40;;;19.00;92.70;;;;;;5040654;28;20513;-62
2023/05/09 11:58:41;;;;;;;5.33;2.17;;;19.10;94.70;;;;;;5042946;28;20965;-61
2023/05/09 12:01:07;;;;;;;3.87;2.07;;;19.10;93.70;;;;;;5042882;28;20820;-63
2023/05/09 12:03:32;;;;;;;6.47;1.80;;;19.20;88.50;;;;;;5038232;28;20437;-61
2023/05/09 12:05:58;;;;;;;3.53;1.93;;;19.40;85.90;;;;;;5042243;28;21716;-62
2023/05/09 12:08:25;;;;;;;1.73;1.63;;;19.50;86.10;;;;;;5036076;28;20709;-62
2023/05/09 12:10:51;;;;;;;2.57;2.00;;;19.60;76.00;;;;;;5034696;28;20552;-61
2023/05/09 12:13:18;;;;;;;7.73;2.40;;;19.70;75.90;;;;;;5036597;28;20442;-60
2023/05/09 12:15:43;;;;;;;3.63;2.20;;;19.90;78.30;;;;;;5038537;28;20229;-61
2023/05/09 12:18:09;;;;;;;1.90;1.80;;;20.00;75.10;;;;;;5035538;28;20603;-61
2023/05/09 12:20:45;;;;;;;6.40;2.43;;;20.00;77.90;;;;;;5042858;28;20214;-61
2023/05/09 12:23:13;;;;;;;2.80;1.70;;;20.10;73.60;;;;;;5040439;28;20266;-61
2023/05/09 12:25:54;;;;;;;3.97;1.87;;;20.10;70.10;;;;;;5044262;28;20425;-62
2023/05/09 12:28:22;;;;;;;2.53;2.00;;;20.10;71.40;;;;;;5041244;28;20518;-61
2023/05/09 12:30:50;;;;;;;2.47;1.90;;;20.10;74.20;;;;;;5040119;28;20492;-61
2023/05/09 12:33:16;;;;;;;4.07;1.90;;;20.10;70.80;;;;;;5038677;28;20516;-60
2023/05/09 12:36:01;;;;;;;2.27;1.70;;;20.10;71.90;;;;;;5037190;28;20418;-62